TRA5575 EDDH-EHRD
Flight info
| Callsign | TRA5575 |
|---|---|
| Flight time | 0h 56m |
| Altitude | 36000 |
| Route | WSN5C WSN N125 BLUFA |
| Aircraft | B737/M-SDE2E3FGHIRWXY/LB1 |
Departure
| Time | 2026-05-06 12:24 |
|---|---|
| Airport | Hamburg Helmut Schmidt Airport (EDDH) |
Arrival
| Time | 2026-05-06 13:20 |
|---|---|
| Airport | Rotterdam The Hague Airport (EHRD) |
| Time | Latitude | Longitude | Altitude | Speed | Heading |
|---|---|---|---|---|---|
| 2026-05-06 12:07 | 53.62938 | 9.99224 | 46 ft | 0 kts | 242° |
| 2026-05-06 12:14 | 53.62939 | 9.99229 | 46 ft | 2 kts | 242° |
| 2026-05-06 12:14 | 53.62947 | 9.99254 | 46 ft | 2 kts | 247° |
| 2026-05-06 12:15 | 53.62953 | 9.99280 | 43 ft | 2 kts | 251° |
| 2026-05-06 12:15 | 53.62957 | 9.99306 | 45 ft | 2 kts | 261° |
| 2026-05-06 12:15 | 53.62958 | 9.99334 | 46 ft | 2 kts | 282° |
| 2026-05-06 12:15 | 53.62951 | 9.99359 | 43 ft | 2 kts | 317° |
| 2026-05-06 12:16 | 53.62942 | 9.99372 | 45 ft | 1 kts | 330° |
| 2026-05-06 12:16 | 53.62940 | 9.99373 | 45 ft | 0 kts | 331° |
| 2026-05-06 12:17 | 53.62983 | 9.99336 | 46 ft | 11 kts | 333° |
| 2026-05-06 12:18 | 53.63018 | 9.99268 | 46 ft | 7 kts | 280° |
| 2026-05-06 12:18 | 53.62992 | 9.99171 | 46 ft | 13 kts | 231° |
| 2026-05-06 12:18 | 53.62914 | 9.99008 | 46 ft | 22 kts | 231° |
| 2026-05-06 12:18 | 53.62815 | 9.98805 | 46 ft | 22 kts | 228° |
| 2026-05-06 12:19 | 53.62718 | 9.98608 | 46 ft | 21 kts | 231° |
| 2026-05-06 12:19 | 53.62621 | 9.98414 | 46 ft | 22 kts | 229° |
| 2026-05-06 12:19 | 53.62521 | 9.98219 | 46 ft | 22 kts | 228° |
| 2026-05-06 12:19 | 53.62410 | 9.98043 | 46 ft | 22 kts | 227° |
| 2026-05-06 12:20 | 53.62311 | 9.97845 | 46 ft | 22 kts | 230° |
| 2026-05-06 12:20 | 53.62213 | 9.97647 | 46 ft | 21 kts | 229° |
| 2026-05-06 12:20 | 53.62117 | 9.97461 | 46 ft | 21 kts | 230° |
| 2026-05-06 12:20 | 53.62027 | 9.97277 | 46 ft | 20 kts | 231° |
| 2026-05-06 12:21 | 53.61940 | 9.97100 | 46 ft | 19 kts | 230° |
| 2026-05-06 12:21 | 53.61862 | 9.96943 | 46 ft | 16 kts | 231° |
| 2026-05-06 12:21 | 53.61801 | 9.96816 | 45 ft | 13 kts | 230° |
| 2026-05-06 12:21 | 53.61749 | 9.96713 | 45 ft | 12 kts | 230° |
| 2026-05-06 12:22 | 53.61695 | 9.96603 | 46 ft | 11 kts | 231° |
| 2026-05-06 12:22 | 53.61672 | 9.96490 | 45 ft | 9 kts | 284° |
| 2026-05-06 12:22 | 53.61703 | 9.96424 | 45 ft | 6 kts | 328° |
| 2026-05-06 12:22 | 53.61736 | 9.96415 | 45 ft | 4 kts | 358° |
| 2026-05-06 12:23 | 53.61796 | 9.96418 | 42 ft | 13 kts | 3° |
| 2026-05-06 12:23 | 53.61878 | 9.96477 | 42 ft | 8 kts | 46° |
| 2026-05-06 12:23 | 53.61903 | 9.96526 | 43 ft | 5 kts | 49° |
| 2026-05-06 12:23 | 53.61941 | 9.96602 | 42 ft | 27 kts | 50° |
| 2026-05-06 12:24 | 53.62268 | 9.97264 | 39 ft | 117 kts | 50° |
| 2026-05-06 12:24 | 53.62903 | 9.98539 | 460 ft | 151 kts | 50° |
| 2026-05-06 12:24 | 53.63533 | 9.99802 | 1719 ft | 134 kts | 51° |
| 2026-05-06 12:24 | 53.64151 | 10.01045 | 2572 ft | 148 kts | 51° |
| 2026-05-06 12:25 | 53.64893 | 10.02548 | 2962 ft | 185 kts | 52° |
| 2026-05-06 12:25 | 53.65744 | 10.04283 | 3617 ft | 198 kts | 52° |
| 2026-05-06 12:25 | 53.66644 | 10.06124 | 4448 ft | 206 kts | 52° |
| 2026-05-06 12:25 | 53.67565 | 10.08011 | 5436 ft | 210 kts | 52° |
| 2026-05-06 12:26 | 53.68633 | 10.09722 | 6374 ft | 220 kts | 30° |
| 2026-05-06 12:26 | 53.70132 | 10.10287 | 7324 ft | 226 kts | 358° |
| 2026-05-06 12:26 | 53.71677 | 10.09418 | 8027 ft | 253 kts | 325° |
| 2026-05-06 12:26 | 53.72852 | 10.06989 | 8514 ft | 282 kts | 298° |
| 2026-05-06 12:27 | 53.73716 | 10.03983 | 9595 ft | 285 kts | 295° |
| 2026-05-06 12:27 | 53.74556 | 10.00934 | 10490 ft | 293 kts | 293° |
| 2026-05-06 12:27 | 53.75002 | 9.97432 | 10770 ft | 321 kts | 266° |
| 2026-05-06 12:27 | 53.74480 | 9.93717 | 11496 ft | 330 kts | 248° |
| 2026-05-06 12:28 | 53.73590 | 9.90127 | 12409 ft | 334 kts | 245° |
| 2026-05-06 12:28 | 53.72633 | 9.86529 | 13369 ft | 338 kts | 244° |
| 2026-05-06 12:28 | 53.71663 | 9.82886 | 14211 ft | 343 kts | 244° |
| 2026-05-06 12:28 | 53.70700 | 9.79208 | 15172 ft | 342 kts | 244° |
| 2026-05-06 12:29 | 53.69744 | 9.75510 | 16022 ft | 346 kts | 245° |
| 2026-05-06 12:29 | 53.68782 | 9.71754 | 16833 ft | 351 kts | 245° |
| 2026-05-06 12:29 | 53.67817 | 9.67964 | 17743 ft | 353 kts | 245° |
| 2026-05-06 12:29 | 53.66840 | 9.64134 | 18475 ft | 358 kts | 245° |
| 2026-05-06 12:30 | 53.65848 | 9.60256 | 19209 ft | 362 kts | 245° |
| 2026-05-06 12:30 | 53.64740 | 9.56446 | 19924 ft | 364 kts | 236° |
| 2026-05-06 12:30 | 53.63289 | 9.52952 | 20736 ft | 364 kts | 232° |
| 2026-05-06 12:30 | 53.61755 | 9.49510 | 21372 ft | 371 kts | 232° |
| 2026-05-06 12:31 | 53.60192 | 9.46012 | 22045 ft | 375 kts | 232° |
| 2026-05-06 12:31 | 53.58637 | 9.42481 | 22815 ft | 377 kts | 233° |
| 2026-05-06 12:31 | 53.57081 | 9.38896 | 23445 ft | 382 kts | 233° |
| 2026-05-06 12:31 | 53.55513 | 9.35260 | 23991 ft | 386 kts | 233° |
| 2026-05-06 12:32 | 53.53931 | 9.31593 | 24589 ft | 388 kts | 233° |
| 2026-05-06 12:32 | 53.52348 | 9.27929 | 25299 ft | 387 kts | 232° |
| 2026-05-06 12:32 | 53.50768 | 9.24283 | 26052 ft | 385 kts | 232° |
| 2026-05-06 12:32 | 53.49193 | 9.20657 | 26797 ft | 383 kts | 232° |
| 2026-05-06 12:33 | 53.47623 | 9.17047 | 27511 ft | 383 kts | 232° |
| 2026-05-06 12:33 | 53.46051 | 9.13438 | 28203 ft | 383 kts | 232° |
| 2026-05-06 12:33 | 53.44483 | 9.09841 | 28953 ft | 381 kts | 232° |
| 2026-05-06 12:33 | 53.42920 | 9.06258 | 29677 ft | 380 kts | 232° |
| 2026-05-06 12:34 | 53.41347 | 9.02660 | 29841 ft | 384 kts | 232° |
| 2026-05-06 12:34 | 53.39777 | 8.99071 | 29857 ft | 380 kts | 232° |
| 2026-05-06 12:34 | 53.36646 | 8.91930 | 29881 ft | 381 kts | 232° |
| 2026-05-06 12:35 | 53.33851 | 8.84303 | 30006 ft | 401 kts | 248° |
| 2026-05-06 12:35 | 53.32901 | 8.79846 | 30142 ft | 412 kts | 249° |
| 2026-05-06 12:35 | 53.31970 | 8.75343 | 30944 ft | 402 kts | 249° |
| 2026-05-06 12:36 | 53.31043 | 8.71017 | 31900 ft | 392 kts | 248° |
| 2026-05-06 12:36 | 53.30095 | 8.66733 | 32321 ft | 395 kts | 248° |
| 2026-05-06 12:36 | 53.29132 | 8.62402 | 32596 ft | 400 kts | 248° |
| 2026-05-06 12:36 | 53.28172 | 8.58014 | 32960 ft | 403 kts | 248° |
| 2026-05-06 12:37 | 53.27211 | 8.53613 | 33381 ft | 404 kts | 248° |
| 2026-05-06 12:37 | 53.26246 | 8.49196 | 33772 ft | 405 kts | 249° |
| 2026-05-06 12:37 | 53.25351 | 8.44720 | 34092 ft | 408 kts | 250° |
| 2026-05-06 12:37 | 53.24510 | 8.40181 | 34375 ft | 411 kts | 251° |
| 2026-05-06 12:38 | 53.23677 | 8.35605 | 34635 ft | 412 kts | 251° |
| 2026-05-06 12:38 | 53.22834 | 8.31022 | 34895 ft | 414 kts | 251° |
| 2026-05-06 12:38 | 53.21975 | 8.26420 | 35159 ft | 416 kts | 250° |
| 2026-05-06 12:38 | 53.21106 | 8.21811 | 35382 ft | 418 kts | 250° |
| 2026-05-06 12:39 | 53.20227 | 8.17183 | 35614 ft | 420 kts | 250° |
| 2026-05-06 12:39 | 53.19340 | 8.12535 | 35836 ft | 420 kts | 250° |
| 2026-05-06 12:39 | 53.17586 | 8.03267 | 35872 ft | 416 kts | 250° |
| 2026-05-06 12:40 | 53.15862 | 7.94122 | 35867 ft | 412 kts | 250° |
| 2026-05-06 12:40 | 53.14136 | 7.85026 | 35878 ft | 412 kts | 250° |
| 2026-05-06 12:41 | 53.12434 | 7.76085 | 35854 ft | 392 kts | 250° |
| 2026-05-06 12:41 | 53.11623 | 7.71839 | 35850 ft | 378 kts | 250° |
| 2026-05-06 12:41 | 53.10848 | 7.67798 | 35844 ft | 365 kts | 250° |
| 2026-05-06 12:42 | 53.10086 | 7.63833 | 35743 ft | 355 kts | 250° |
| 2026-05-06 12:42 | 53.09340 | 7.59963 | 35540 ft | 349 kts | 250° |
| 2026-05-06 12:42 | 53.08601 | 7.56134 | 35173 ft | 348 kts | 250° |
| 2026-05-06 12:42 | 53.07861 | 7.52310 | 34739 ft | 348 kts | 250° |
| 2026-05-06 12:43 | 53.07100 | 7.48391 | 33666 ft | 367 kts | 250° |
| 2026-05-06 12:43 | 53.06287 | 7.44213 | 32404 ft | 388 kts | 250° |
| 2026-05-06 12:43 | 53.05456 | 7.39937 | 31829 ft | 390 kts | 250° |
| 2026-05-06 12:43 | 53.04620 | 7.35633 | 31186 ft | 393 kts | 250° |
| 2026-05-06 12:44 | 53.03775 | 7.31293 | 30555 ft | 396 kts | 250° |
| 2026-05-06 12:44 | 53.02923 | 7.26930 | 29927 ft | 397 kts | 250° |
| 2026-05-06 12:44 | 53.02067 | 7.22563 | 29214 ft | 398 kts | 250° |
| 2026-05-06 12:44 | 53.01201 | 7.18198 | 28517 ft | 398 kts | 250° |
| 2026-05-06 12:45 | 53.00322 | 7.13859 | 27835 ft | 397 kts | 250° |
| 2026-05-06 12:45 | 52.99437 | 7.09529 | 27304 ft | 393 kts | 250° |
| 2026-05-06 12:45 | 52.97724 | 7.01172 | 26458 ft | 371 kts | 250° |
| 2026-05-06 12:46 | 52.96904 | 6.97175 | 26016 ft | 362 kts | 250° |
| 2026-05-06 12:46 | 52.96100 | 6.93265 | 25582 ft | 354 kts | 250° |
| 2026-05-06 12:46 | 52.95317 | 6.89459 | 25179 ft | 345 kts | 250° |
| 2026-05-06 12:46 | 52.94549 | 6.85734 | 24768 ft | 337 kts | 250° |
| 2026-05-06 12:47 | 52.93801 | 6.82108 | 24377 ft | 329 kts | 250° |
| 2026-05-06 12:47 | 52.93311 | 6.79738 | 24123 ft | 327 kts | 251° |
| 2026-05-06 12:47 | 52.92571 | 6.76166 | 23757 ft | 328 kts | 251° |
| 2026-05-06 12:47 | 52.91583 | 6.71402 | 23196 ft | 332 kts | 251° |
| 2026-05-06 12:48 | 52.91073 | 6.68946 | 22884 ft | 334 kts | 251° |
| 2026-05-06 12:48 | 52.90315 | 6.65304 | 22449 ft | 335 kts | 250° |
| 2026-05-06 12:48 | 52.89316 | 6.60511 | 21899 ft | 330 kts | 250° |
| 2026-05-06 12:48 | 52.88810 | 6.58090 | 21625 ft | 328 kts | 250° |
| 2026-05-06 12:49 | 52.88065 | 6.54524 | 21204 ft | 326 kts | 250° |
| 2026-05-06 12:49 | 52.87326 | 6.50999 | 20805 ft | 323 kts | 250° |
| 2026-05-06 12:49 | 52.86591 | 6.47493 | 20402 ft | 321 kts | 250° |
| 2026-05-06 12:49 | 52.85859 | 6.44007 | 19992 ft | 320 kts | 250° |
| 2026-05-06 12:50 | 52.85129 | 6.40539 | 19597 ft | 319 kts | 250° |
| 2026-05-06 12:50 | 52.84399 | 6.37085 | 19189 ft | 318 kts | 250° |
| 2026-05-06 12:50 | 52.83590 | 6.33697 | 18768 ft | 316 kts | 239° |
| 2026-05-06 12:50 | 52.82230 | 6.30867 | 18371 ft | 314 kts | 226° |
| 2026-05-06 12:51 | 52.80690 | 6.28304 | 17899 ft | 315 kts | 224° |
| 2026-05-06 12:51 | 52.79129 | 6.25788 | 17462 ft | 313 kts | 224° |
| 2026-05-06 12:51 | 52.77571 | 6.23288 | 17035 ft | 311 kts | 224° |
| 2026-05-06 12:51 | 52.76046 | 6.20832 | 16630 ft | 309 kts | 224° |
| 2026-05-06 12:52 | 52.74513 | 6.18351 | 16229 ft | 308 kts | 225° |
| 2026-05-06 12:52 | 52.72973 | 6.15851 | 15821 ft | 306 kts | 225° |
| 2026-05-06 12:52 | 52.71480 | 6.13424 | 15429 ft | 304 kts | 225° |
| 2026-05-06 12:52 | 52.69979 | 6.10980 | 15038 ft | 303 kts | 225° |
| 2026-05-06 12:53 | 52.68482 | 6.08544 | 14640 ft | 302 kts | 226° |
| 2026-05-06 12:53 | 52.66989 | 6.06114 | 14246 ft | 301 kts | 226° |
| 2026-05-06 12:53 | 52.65550 | 6.03774 | 13864 ft | 300 kts | 226° |
| 2026-05-06 12:53 | 52.64064 | 6.01359 | 13431 ft | 300 kts | 226° |
| 2026-05-06 12:54 | 52.62582 | 5.98951 | 13015 ft | 299 kts | 226° |
| 2026-05-06 12:54 | 52.61101 | 5.96546 | 12602 ft | 299 kts | 226° |
| 2026-05-06 12:54 | 52.59621 | 5.94148 | 12185 ft | 299 kts | 226° |
| 2026-05-06 12:54 | 52.58145 | 5.91759 | 11771 ft | 297 kts | 226° |
| 2026-05-06 12:55 | 52.56677 | 5.89383 | 11371 ft | 295 kts | 225° |
| 2026-05-06 12:55 | 52.55216 | 5.87020 | 10976 ft | 294 kts | 225° |
| 2026-05-06 12:55 | 52.53761 | 5.84671 | 10575 ft | 293 kts | 225° |
| 2026-05-06 12:55 | 52.52312 | 5.82333 | 10180 ft | 292 kts | 225° |
| 2026-05-06 12:56 | 52.50880 | 5.80025 | 9998 ft | 283 kts | 225° |
| 2026-05-06 12:56 | 52.49494 | 5.77794 | 9728 ft | 278 kts | 225° |
| 2026-05-06 12:56 | 52.48114 | 5.75574 | 9339 ft | 277 kts | 225° |
| 2026-05-06 12:56 | 52.46744 | 5.73372 | 8975 ft | 275 kts | 224° |
| 2026-05-06 12:57 | 52.45377 | 5.71176 | 8606 ft | 275 kts | 224° |
| 2026-05-06 12:57 | 52.44013 | 5.68985 | 8252 ft | 273 kts | 224° |
| 2026-05-06 12:57 | 52.42656 | 5.66810 | 7888 ft | 273 kts | 224° |
| 2026-05-06 12:57 | 52.41301 | 5.64641 | 7546 ft | 272 kts | 224° |
| 2026-05-06 12:58 | 52.39949 | 5.62480 | 7211 ft | 271 kts | 224° |
| 2026-05-06 12:58 | 52.38743 | 5.60130 | 6914 ft | 269 kts | 244° |
| 2026-05-06 12:58 | 52.38185 | 5.57269 | 6899 ft | 262 kts | 261° |
| 2026-05-06 12:58 | 52.37867 | 5.54322 | 6895 ft | 267 kts | 256° |
| 2026-05-06 12:59 | 52.36983 | 5.51624 | 6912 ft | 273 kts | 232° |
| 2026-05-06 12:59 | 52.35792 | 5.49185 | 6886 ft | 274 kts | 231° |
| 2026-05-06 12:59 | 52.34601 | 5.46811 | 6872 ft | 264 kts | 231° |
| 2026-05-06 12:59 | 52.33471 | 5.44554 | 6861 ft | 249 kts | 231° |
| 2026-05-06 13:00 | 52.32407 | 5.42412 | 6863 ft | 236 kts | 231° |
| 2026-05-06 13:00 | 52.31405 | 5.40381 | 6828 ft | 224 kts | 231° |
| 2026-05-06 13:00 | 52.30416 | 5.38368 | 6464 ft | 231 kts | 232° |
| 2026-05-06 13:00 | 52.29407 | 5.36303 | 6133 ft | 234 kts | 232° |
| 2026-05-06 13:01 | 52.28416 | 5.34272 | 5930 ft | 231 kts | 232° |
| 2026-05-06 13:01 | 52.27421 | 5.32227 | 5687 ft | 230 kts | 232° |
| 2026-05-06 13:01 | 52.26425 | 5.30180 | 5434 ft | 230 kts | 232° |
| 2026-05-06 13:01 | 52.25434 | 5.28141 | 5260 ft | 228 kts | 232° |
| 2026-05-06 13:02 | 52.24442 | 5.26102 | 4955 ft | 230 kts | 232° |
| 2026-05-06 13:02 | 52.23457 | 5.24074 | 4737 ft | 227 kts | 232° |
| 2026-05-06 13:02 | 52.22472 | 5.22046 | 4454 ft | 228 kts | 232° |
| 2026-05-06 13:02 | 52.21493 | 5.20032 | 4398 ft | 227 kts | 232° |
| 2026-05-06 13:03 | 52.20516 | 5.18025 | 4382 ft | 225 kts | 232° |
| 2026-05-06 13:03 | 52.19546 | 5.16033 | 4388 ft | 224 kts | 232° |
| 2026-05-06 13:03 | 52.18576 | 5.14039 | 4388 ft | 225 kts | 232° |
| 2026-05-06 13:03 | 52.17600 | 5.12036 | 4393 ft | 226 kts | 232° |
| 2026-05-06 13:04 | 52.16618 | 5.10023 | 4385 ft | 227 kts | 232° |
| 2026-05-06 13:04 | 52.15636 | 5.08009 | 4390 ft | 227 kts | 232° |
| 2026-05-06 13:04 | 52.14650 | 5.05991 | 4383 ft | 227 kts | 232° |
| 2026-05-06 13:04 | 52.13669 | 5.03983 | 4384 ft | 226 kts | 232° |
| 2026-05-06 13:05 | 52.12686 | 5.01973 | 4391 ft | 230 kts | 232° |
| 2026-05-06 13:05 | 52.11628 | 4.99809 | 4452 ft | 258 kts | 232° |
| 2026-05-06 13:05 | 52.10499 | 4.97506 | 4388 ft | 260 kts | 232° |
| 2026-05-06 13:05 | 52.09361 | 4.95184 | 3963 ft | 265 kts | 232° |
| 2026-05-06 13:06 | 52.08213 | 4.92843 | 3665 ft | 263 kts | 233° |
| 2026-05-06 13:06 | 52.07053 | 4.90486 | 3687 ft | 278 kts | 232° |
| 2026-05-06 13:06 | 52.05853 | 4.88045 | 3651 ft | 274 kts | 232° |
| 2026-05-06 13:06 | 52.04691 | 4.85686 | 3627 ft | 259 kts | 232° |
| 2026-05-06 13:07 | 52.03606 | 4.83489 | 3563 ft | 241 kts | 233° |
| 2026-05-06 13:07 | 52.02586 | 4.81422 | 3435 ft | 229 kts | 233° |
| 2026-05-06 13:07 | 52.01614 | 4.79452 | 3353 ft | 225 kts | 233° |
| 2026-05-06 13:07 | 52.00636 | 4.77468 | 3256 ft | 225 kts | 233° |
| 2026-05-06 13:08 | 51.99651 | 4.75475 | 3180 ft | 221 kts | 233° |
| 2026-05-06 13:08 | 51.98704 | 4.73560 | 3050 ft | 220 kts | 232° |
| 2026-05-06 13:08 | 51.97745 | 4.71617 | 2946 ft | 221 kts | 232° |
| 2026-05-06 13:08 | 51.96784 | 4.69677 | 2815 ft | 220 kts | 232° |
| 2026-05-06 13:09 | 51.95824 | 4.67740 | 2679 ft | 219 kts | 233° |
| 2026-05-06 13:09 | 51.94875 | 4.65827 | 2543 ft | 217 kts | 232° |
| 2026-05-06 13:09 | 51.93930 | 4.63921 | 2420 ft | 217 kts | 232° |
| 2026-05-06 13:09 | 51.92981 | 4.62009 | 2300 ft | 219 kts | 232° |
| 2026-05-06 13:10 | 51.92038 | 4.60112 | 2173 ft | 220 kts | 233° |
| 2026-05-06 13:10 | 51.91071 | 4.58168 | 2066 ft | 225 kts | 232° |
| 2026-05-06 13:10 | 51.90063 | 4.56141 | 2047 ft | 236 kts | 232° |
| 2026-05-06 13:10 | 51.89035 | 4.54073 | 1987 ft | 233 kts | 233° |
| 2026-05-06 13:11 | 51.88034 | 4.52069 | 2008 ft | 227 kts | 232° |
| 2026-05-06 13:11 | 51.87034 | 4.50065 | 2003 ft | 230 kts | 233° |
| 2026-05-06 13:11 | 51.86015 | 4.48025 | 2010 ft | 236 kts | 232° |
| 2026-05-06 13:11 | 51.84979 | 4.45952 | 1993 ft | 237 kts | 233° |
| 2026-05-06 13:12 | 51.83940 | 4.43877 | 1997 ft | 238 kts | 233° |
| 2026-05-06 13:12 | 51.82901 | 4.41807 | 2002 ft | 236 kts | 233° |
| 2026-05-06 13:12 | 51.81869 | 4.39745 | 2004 ft | 235 kts | 232° |
| 2026-05-06 13:12 | 51.80854 | 4.37720 | 1983 ft | 228 kts | 233° |
| 2026-05-06 13:13 | 51.79878 | 4.35773 | 1981 ft | 220 kts | 233° |
| 2026-05-06 13:13 | 51.78910 | 4.33845 | 1993 ft | 222 kts | 232° |
| 2026-05-06 13:13 | 51.77945 | 4.31924 | 1992 ft | 216 kts | 233° |
| 2026-05-06 13:13 | 51.77010 | 4.30070 | 1956 ft | 209 kts | 233° |
| 2026-05-06 13:14 | 51.76216 | 4.28147 | 1963 ft | 205 kts | 256° |
| 2026-05-06 13:14 | 51.76202 | 4.25935 | 1996 ft | 196 kts | 294° |
| 2026-05-06 13:14 | 51.76941 | 4.24193 | 2013 ft | 186 kts | 324° |
| 2026-05-06 13:14 | 51.78047 | 4.23292 | 2016 ft | 172 kts | 349° |
| 2026-05-06 13:15 | 51.79195 | 4.22998 | 2004 ft | 164 kts | 353° |
| 2026-05-06 13:15 | 51.80339 | 4.22691 | 1991 ft | 169 kts | 352° |
| 2026-05-06 13:15 | 51.81505 | 4.22373 | 2001 ft | 170 kts | 352° |
| 2026-05-06 13:15 | 51.82674 | 4.22053 | 2006 ft | 171 kts | 353° |
| 2026-05-06 13:16 | 51.83856 | 4.21731 | 2008 ft | 172 kts | 353° |
| 2026-05-06 13:16 | 51.85040 | 4.21415 | 1992 ft | 172 kts | 354° |
| 2026-05-06 13:16 | 51.86161 | 4.21807 | 1994 ft | 167 kts | 38° |
| 2026-05-06 13:16 | 51.86984 | 4.23158 | 2005 ft | 171 kts | 44° |
| 2026-05-06 13:17 | 51.87767 | 4.24613 | 1993 ft | 171 kts | 48° |
| 2026-05-06 13:17 | 51.88515 | 4.26121 | 2005 ft | 173 kts | 51° |
| 2026-05-06 13:17 | 51.89209 | 4.27740 | 2001 ft | 176 kts | 54° |
| 2026-05-06 13:17 | 51.89881 | 4.29415 | 1957 ft | 179 kts | 54° |
| 2026-05-06 13:18 | 51.90559 | 4.31130 | 1763 ft | 181 kts | 55° |
| 2026-05-06 13:18 | 51.91224 | 4.32805 | 1526 ft | 173 kts | 55° |
| 2026-05-06 13:18 | 51.91864 | 4.34414 | 1299 ft | 166 kts | 54° |
| 2026-05-06 13:18 | 51.92482 | 4.35970 | 1082 ft | 162 kts | 54° |
| 2026-05-06 13:19 | 51.93066 | 4.37442 | 872 ft | 148 kts | 55° |
| 2026-05-06 13:19 | 51.93600 | 4.38805 | 710 ft | 137 kts | 56° |
| 2026-05-06 13:19 | 51.94090 | 4.40159 | 416 ft | 142 kts | 56° |
| 2026-05-06 13:19 | 51.94650 | 4.41403 | 250 ft | 135 kts | 51° |
| 2026-05-06 13:20 | 51.95121 | 4.42618 | 83 ft | 117 kts | 53° |
| 2026-05-06 13:20 | 51.95532 | 4.43613 | -6 ft | 94 kts | 56° |
| 2026-05-06 13:20 | 51.95799 | 4.44295 | -6 ft | 49 kts | 57° |
| 2026-05-06 13:20 | 51.95900 | 4.44543 | -6 ft | 15 kts | 56° |
| 2026-05-06 13:21 | 51.95882 | 4.44709 | -6 ft | 23 kts | 142° |
| 2026-05-06 13:21 | 51.95747 | 4.44668 | -6 ft | 30 kts | 239° |
| 2026-05-06 13:21 | 51.95620 | 4.44348 | -6 ft | 35 kts | 236° |
| 2026-05-06 13:21 | 51.95487 | 4.44016 | -6 ft | 35 kts | 237° |
| 2026-05-06 13:22 | 51.95360 | 4.43698 | -6 ft | 32 kts | 237° |
| 2026-05-06 13:22 | 51.95277 | 4.43514 | -6 ft | 12 kts | 208° |
| 2026-05-06 13:22 | 51.95211 | 4.43547 | -6 ft | 8 kts | 148° |
| 2026-05-06 13:22 | 51.95159 | 4.43598 | -7 ft | 10 kts | 149° |
| 2026-05-06 13:23 | 51.95137 | 4.43620 | -7 ft | 5 kts | 149° |
| 2026-05-06 13:23 | 51.95089 | 4.43576 | -7 ft | 5 kts | 235° |
| 2026-05-06 13:23 | 51.95082 | 4.43553 | -7 ft | 7 kts | 254° |
| 2026-05-06 13:23 | 51.95107 | 4.43492 | -7 ft | 5 kts | 322° |
| 2026-05-06 13:24 | 51.95115 | 4.43482 | -7 ft | 0 kts | 325° |